createdAt,value
2018-05-18T00:03:24.741Z,6.30
2018-05-18T00:07:28.249Z,7.10
2018-05-18T00:11:31.755Z,6.77
2018-05-18T00:15:35.243Z,6.90
2018-05-18T00:19:38.134Z,7.20
2018-05-18T00:23:40.881Z,6.80
2018-05-18T00:27:43.663Z,6.47
2018-05-18T00:31:47.158Z,8.00
2018-05-18T00:35:49.978Z,8.00
2018-05-18T00:39:53.614Z,7.23
2018-05-18T00:43:57.075Z,6.90
2018-05-18T00:47:59.969Z,8.33
2018-05-18T00:52:03.461Z,7.13
2018-05-18T00:56:06.358Z,6.20
2018-05-18T01:00:09.087Z,7.30
2018-05-18T01:04:11.838Z,6.87
2018-05-18T01:08:14.581Z,7.63
2018-05-18T01:12:17.316Z,7.33
2018-05-18T01:16:20.789Z,5.87
2018-05-18T01:20:23.672Z,7.23
2018-05-18T01:24:26.399Z,6.77
2018-05-18T01:28:29.178Z,7.10
2018-05-18T01:32:31.954Z,7.50
2018-05-18T01:36:34.774Z,5.90
2018-05-18T01:40:37.477Z,6.63
2018-05-18T01:44:40.376Z,7.00
2018-05-18T01:48:43.264Z,7.33
2018-05-18T01:52:46.061Z,7.57
2018-05-18T01:56:48.992Z,7.50
2018-05-18T02:00:51.815Z,7.70
2018-05-18T02:04:55.499Z,7.47
2018-05-18T02:08:58.227Z,7.77
2018-05-18T02:13:02.247Z,6.93
2018-05-18T02:17:05.149Z,6.67
2018-05-18T02:21:08.745Z,8.10
2018-05-18T02:25:11.473Z,6.43
2018-05-18T02:29:14.422Z,6.70
2018-05-18T02:33:17.168Z,7.67
2018-05-18T02:37:20.051Z,7.00
2018-05-18T02:41:22.815Z,6.00
2018-05-18T02:45:25.594Z,6.30
2018-05-18T02:49:28.430Z,6.70
2018-05-18T02:53:31.187Z,7.60
2018-05-18T02:57:33.940Z,5.87
2018-05-18T03:01:36.761Z,6.53
2018-05-18T03:05:39.561Z,8.57
2018-05-18T03:09:42.309Z,6.07
2018-05-18T03:13:45.041Z,6.70
2018-05-18T03:17:48.655Z,7.37
2018-05-18T03:21:52.144Z,7.23
2018-05-18T03:25:54.916Z,6.80
2018-05-18T03:29:57.651Z,6.93
2018-05-18T03:34:00.428Z,6.27
2018-05-18T03:38:03.299Z,6.10
2018-05-18T03:42:06.092Z,6.93
2018-05-18T03:46:08.814Z,6.80
2018-05-18T03:50:11.652Z,6.10
2018-05-18T03:54:15.133Z,5.87
2018-05-18T03:58:17.999Z,7.47
2018-05-18T04:02:32.830Z,6.90
2018-05-18T04:06:48.516Z,6.17
2018-05-18T04:10:51.984Z,6.03
2018-05-18T04:14:56.063Z,6.93
2018-05-18T04:18:59.553Z,6.30
2018-05-18T04:23:02.437Z,5.90
2018-05-18T04:27:05.449Z,7.10
2018-05-18T04:31:08.269Z,6.40
2018-05-18T04:35:11.764Z,5.30
2018-05-18T04:39:14.471Z,5.57
2018-05-18T04:43:17.448Z,5.67
2018-05-18T04:47:27.693Z,5.53
2018-05-18T04:51:30.393Z,5.20
2018-05-18T04:55:33.125Z,6.00
2018-05-18T04:59:35.851Z,5.53
2018-05-18T05:03:38.576Z,4.60
2018-05-18T05:07:42.884Z,5.30
2018-05-18T05:11:48.796Z,4.70
2018-05-18T05:15:51.831Z,5.40
2018-05-18T05:19:56.214Z,4.73
2018-05-18T05:23:59.247Z,5.07
2018-05-18T05:28:05.903Z,5.87
2018-05-18T05:32:08.991Z,4.77
2018-05-18T05:36:13.061Z,4.60
2018-05-18T05:40:15.765Z,5.10
2018-05-18T05:44:18.500Z,4.90
2018-05-18T05:48:21.232Z,5.50
2018-05-18T05:52:24.816Z,5.10
2018-05-18T05:56:27.713Z,4.03
2018-05-18T06:00:30.613Z,5.03
2018-05-18T06:04:34.581Z,4.00
2018-05-18T06:08:39.030Z,4.83
2018-05-18T06:12:45.159Z,4.17
2018-05-18T06:16:48.929Z,4.83
2018-05-18T06:20:52.309Z,5.30
2018-05-18T06:24:55.638Z,4.80
2018-05-18T06:28:58.406Z,5.30
2018-05-18T06:33:02.115Z,5.70
2018-05-18T06:37:04.866Z,5.03
2018-05-18T06:41:08.526Z,5.53
2018-05-18T06:45:13.562Z,5.00
2018-05-18T06:49:16.380Z,5.30
2018-05-18T06:53:20.289Z,5.57
2018-05-18T06:57:23.656Z,5.67
2018-05-18T07:01:27.501Z,5.50
2018-05-18T07:05:30.964Z,5.10
2018-05-18T07:09:33.882Z,4.90
2018-05-18T07:13:36.820Z,5.47
2018-05-18T07:17:40.882Z,4.13
2018-05-18T07:21:43.740Z,5.10
2018-05-18T07:25:46.578Z,4.97
2018-05-18T07:29:49.308Z,4.87
2018-05-18T07:33:52.049Z,5.33
2018-05-18T07:37:54.805Z,5.50
2018-05-18T07:41:57.500Z,4.87
2018-05-18T07:46:00.237Z,5.50
2018-05-18T07:50:03.074Z,5.70
2018-05-18T07:54:05.805Z,5.60
2018-05-18T07:58:08.602Z,5.67
2018-05-18T08:02:12.125Z,5.60
2018-05-18T08:06:15.602Z,5.10
2018-05-18T08:10:18.348Z,5.40
2018-05-18T08:14:21.080Z,5.30
2018-05-18T08:18:24.806Z,5.03
2018-05-18T08:22:29.001Z,5.57
2018-05-18T08:26:32.915Z,5.30
2018-05-18T08:30:48.344Z,5.30
2018-05-18T08:34:51.550Z,5.37
2018-05-18T08:39:00.060Z,5.87
2018-05-18T08:43:05.444Z,4.80
2018-05-18T08:47:09.357Z,5.07
2018-05-18T08:51:12.184Z,4.90
2018-05-18T08:55:15.646Z,5.40
2018-05-18T08:59:19.385Z,5.40
2018-05-18T09:03:22.170Z,5.73
2018-05-18T09:07:25.453Z,5.37
2018-05-18T09:11:29.279Z,5.27
2018-05-18T09:15:32.114Z,4.63
2018-05-18T09:19:35.568Z,6.00
2018-05-18T09:23:40.171Z,4.80
2018-05-18T09:27:44.096Z,5.73
2018-05-18T09:31:46.814Z,5.97
2018-05-18T09:35:49.523Z,5.80
2018-05-18T09:39:53.114Z,6.10
2018-05-18T09:43:55.796Z,5.63
2018-05-18T09:47:58.502Z,5.97
2018-05-18T09:52:01.346Z,6.10
2018-05-18T09:56:04.110Z,5.50
2018-05-18T10:00:06.882Z,5.90
2018-05-18T10:04:09.617Z,6.00
2018-05-18T10:08:13.826Z,5.60
2018-05-18T10:12:17.315Z,5.70
2018-05-18T10:16:20.759Z,6.30
2018-05-18T10:20:23.592Z,6.23
2018-05-18T10:24:26.290Z,5.20
2018-05-18T10:28:29.013Z,4.97
2018-05-18T10:32:31.762Z,5.00
2018-05-18T10:36:35.339Z,4.70
2018-05-18T10:40:38.086Z,4.43
2018-05-18T10:44:40.884Z,4.50
2018-05-18T10:48:44.376Z,5.33
2018-05-18T10:52:47.285Z,4.90
2018-05-18T10:56:50.842Z,5.10
2018-05-18T11:00:53.579Z,4.60
2018-05-18T11:04:56.461Z,4.60
2018-05-18T11:09:00.285Z,5.20
2018-05-18T11:13:03.078Z,4.50
2018-05-18T11:17:05.830Z,4.47
2018-05-18T11:21:08.544Z,5.40
2018-05-18T11:25:11.255Z,4.40
2018-05-18T11:29:14.089Z,4.57
2018-05-18T11:33:16.815Z,4.70
2018-05-18T11:37:20.316Z,5.20
2018-05-18T11:41:23.143Z,5.10
2018-05-18T11:45:25.839Z,5.37
2018-05-18T11:49:29.372Z,5.23
2018-05-18T11:53:35.056Z,5.10
2018-05-18T11:57:38.663Z,5.60
2018-05-18T12:01:42.845Z,5.60
2018-05-18T12:05:46.311Z,5.70
2018-05-18T12:09:49.145Z,5.17
2018-05-18T12:13:52.707Z,4.67
2018-05-18T12:17:57.832Z,4.77
2018-05-18T12:22:02.688Z,5.63
2018-05-18T12:26:06.455Z,5.13
2018-05-18T12:30:09.509Z,5.87
2018-05-18T12:34:13.313Z,8.77
2018-05-18T12:38:16.619Z,6.43
2018-05-18T12:42:20.573Z,5.77
2018-05-18T12:46:23.455Z,5.50
2018-05-18T12:50:26.244Z,6.50
2018-05-18T12:54:28.973Z,5.30
2018-05-18T12:58:31.716Z,4.90
2018-05-18T13:02:34.453Z,5.47
2018-05-18T13:06:37.172Z,6.00
2018-05-18T13:10:39.897Z,5.60
2018-05-18T13:14:43.731Z,5.60
2018-05-18T13:18:48.135Z,5.60
2018-05-18T13:22:51.109Z,6.40
2018-05-18T13:26:53.927Z,5.23
2018-05-18T13:30:56.860Z,5.40
2018-05-18T13:34:59.679Z,5.17
2018-05-18T13:39:02.833Z,4.50
2018-05-18T13:43:06.420Z,4.80
2018-05-18T13:47:09.149Z,5.03
2018-05-18T13:51:11.883Z,5.40
2018-05-18T13:55:16.967Z,4.97
2018-05-18T13:59:19.867Z,5.33
2018-05-18T14:03:22.601Z,5.47
2018-05-18T14:07:25.416Z,5.80
2018-05-18T14:11:28.169Z,5.80
2018-05-18T14:15:32.068Z,9.00
2018-05-18T14:19:35.117Z,4.80
2018-05-18T14:23:39.453Z,8.30
2018-05-18T14:27:42.254Z,8.70
2018-05-18T14:31:45.033Z,10.50
2018-05-18T14:35:48.646Z,12.97
2018-05-18T14:39:51.393Z,10.33
2018-05-18T14:43:54.671Z,12.00
2018-05-18T14:48:00.545Z,11.07
2018-05-18T14:52:03.921Z,10.67
2018-05-18T14:56:06.988Z,10.20
2018-05-18T15:00:10.642Z,12.53
2018-05-18T15:04:16.034Z,12.67
2018-05-18T15:08:19.504Z,9.40
2018-05-18T15:12:23.355Z,11.23
2018-05-18T15:16:26.806Z,11.63
2018-05-18T15:20:29.546Z,8.27
2018-05-18T15:24:32.259Z,11.07
2018-05-18T15:28:35.406Z,9.03
2018-05-18T15:32:39.416Z,9.10
2018-05-18T15:36:42.341Z,10.40
2018-05-18T15:40:46.388Z,10.17
2018-05-18T15:44:50.190Z,8.60
2018-05-18T15:48:54.000Z,8.43
2018-05-18T15:52:57.719Z,8.60
2018-05-18T15:57:02.104Z,8.67
2018-05-18T16:01:05.523Z,7.30
2018-05-18T16:05:08.369Z,7.40
2018-05-18T16:09:13.129Z,6.50
2018-05-18T16:13:17.935Z,5.90
2018-05-18T16:17:23.455Z,6.10
2018-05-18T16:21:27.336Z,5.93
2018-05-18T16:25:30.587Z,6.40
2018-05-18T16:29:33.413Z,6.43
2018-05-18T16:33:37.074Z,6.73
2018-05-18T16:37:40.761Z,8.57
2018-05-18T16:41:44.388Z,6.63
2018-05-18T16:45:48.055Z,7.37
2018-05-18T16:49:51.878Z,9.10
2018-05-18T16:53:55.584Z,8.33
2018-05-18T16:57:58.584Z,8.60
2018-05-18T17:02:01.334Z,7.75
2018-05-18T17:06:04.149Z,7.50
2018-05-18T17:10:07.958Z,8.77
2018-05-18T17:14:10.698Z,9.37
2018-05-18T17:18:13.640Z,8.07
2018-05-18T17:22:16.470Z,6.97
2018-05-18T17:26:20.220Z,8.83
2018-05-18T17:30:23.145Z,7.60
2018-05-18T17:34:26.672Z,7.10
2018-05-18T17:38:29.541Z,10.00
2018-05-18T17:42:33.254Z,11.90
2018-05-18T17:46:36.077Z,8.53
2018-05-18T17:50:38.851Z,9.10
2018-05-18T17:54:41.637Z,9.00
2018-05-18T17:58:44.546Z,11.10
2018-05-18T18:02:47.576Z,10.97
2018-05-18T18:06:50.372Z,11.43
2018-05-18T18:10:53.288Z,11.90
2018-05-18T18:14:56.183Z,11.53
2018-05-18T18:18:58.963Z,12.77
2018-05-18T18:23:02.746Z,13.00
2018-05-18T18:27:08.453Z,12.40
2018-05-18T18:31:11.622Z,11.43
2018-05-18T18:35:14.731Z,12.40
2018-05-18T18:39:17.922Z,14.77
2018-05-18T18:43:22.134Z,12.03
2018-05-18T18:47:25.036Z,12.83
2018-05-18T18:51:28.566Z,12.03
2018-05-18T18:55:32.279Z,12.57
2018-05-18T18:59:35.802Z,13.50
2018-05-18T19:03:39.398Z,12.90
2018-05-18T19:07:42.312Z,15.60
2018-05-18T19:11:46.052Z,12.70
2018-05-18T19:15:48.927Z,15.50
2018-05-18T19:19:52.491Z,16.30
2018-05-18T19:23:55.453Z,13.67
2018-05-18T19:27:59.128Z,14.97
2018-05-18T19:32:02.820Z,15.07
2018-05-18T19:36:05.923Z,15.90
2018-05-18T19:40:08.759Z,16.03
2018-05-18T19:44:11.515Z,17.03
2018-05-18T19:48:14.660Z,19.00
2018-05-18T19:52:17.402Z,19.70
2018-05-18T19:56:20.363Z,17.40
2018-05-18T20:00:23.275Z,18.50
2018-05-18T20:04:26.259Z,17.63
2018-05-18T20:08:29.191Z,16.20
2018-05-18T20:12:32.800Z,17.70
2018-05-18T20:16:36.919Z,18.87
2018-05-18T20:20:39.850Z,16.27
2018-05-18T20:24:43.698Z,17.40
2018-05-18T20:28:46.730Z,18.03
2018-05-18T20:32:49.607Z,16.10
2018-05-18T20:36:52.389Z,18.70
2018-05-18T20:40:55.304Z,16.20
2018-05-18T20:44:58.033Z,15.17
2018-05-18T20:49:00.870Z,16.47
2018-05-18T20:53:03.617Z,17.20
2018-05-18T20:57:06.372Z,15.87
2018-05-18T21:01:09.258Z,17.30
2018-05-18T21:05:12.833Z,15.70
2018-05-18T21:09:15.619Z,17.10
2018-05-18T21:13:18.370Z,16.77
2018-05-18T21:17:21.741Z,16.00
2018-05-18T21:21:24.638Z,18.70
2018-05-18T21:25:27.356Z,16.80
2018-05-18T21:29:30.229Z,15.10
2018-05-18T21:33:33.012Z,16.90
2018-05-18T21:37:35.865Z,16.97
2018-05-18T21:41:39.385Z,17.07
2018-05-18T21:45:43.023Z,15.30
2018-05-18T21:49:45.892Z,16.30
2018-05-18T21:53:48.664Z,17.47
2018-05-18T21:57:51.467Z,18.17
2018-05-18T22:01:54.198Z,16.70
2018-05-18T22:05:57.868Z,18.50
2018-05-18T22:10:01.472Z,16.17
2018-05-18T22:14:04.296Z,15.57
2018-05-18T22:18:07.086Z,15.70
2018-05-18T22:22:09.884Z,16.20
2018-05-18T22:26:13.437Z,13.97
2018-05-18T22:30:16.964Z,16.00
2018-05-18T22:34:19.721Z,14.27
2018-05-18T22:38:22.738Z,16.80
2018-05-18T22:42:25.567Z,15.37
2018-05-18T22:46:28.455Z,15.00
2018-05-18T22:50:32.142Z,15.10
2018-05-18T22:54:35.023Z,14.23
2018-05-18T22:58:37.938Z,16.30
2018-05-18T23:02:40.778Z,15.90
2018-05-18T23:06:44.549Z,15.90
2018-05-18T23:10:47.301Z,15.80
2018-05-18T23:14:50.123Z,15.53
2018-05-18T23:18:52.958Z,15.20
2018-05-18T23:23:01.812Z,13.40
2018-05-18T23:27:04.614Z,14.80
2018-05-18T23:31:08.233Z,14.30
2018-05-18T23:35:11.762Z,15.23
2018-05-18T23:39:14.719Z,16.20
2018-05-18T23:43:17.496Z,15.20
2018-05-18T23:47:20.332Z,12.50
2018-05-18T23:51:23.109Z,15.70
2018-05-18T23:55:25.904Z,15.50
2018-05-18T23:59:28.647Z,16.40
